sensor_id;sensor_type;location;lat;lon;timestamp;P1;durP1;ratioP1;P2;durP2;ratioP2
7917;SDS011;4004;42.624;23.386;2023-10-13T00:01:02;6.70;;;5.73;;
7917;SDS011;4004;42.624;23.386;2023-10-13T00:03:32;6.57;;;5.67;;
7917;SDS011;4004;42.624;23.386;2023-10-13T00:05:58;6.33;;;5.43;;
7917;SDS011;4004;42.624;23.386;2023-10-13T00:08:28;5.83;;;5.23;;
7917;SDS011;4004;42.624;23.386;2023-10-13T00:10:55;8.47;;;5.50;;
7917;SDS011;4004;42.624;23.386;2023-10-13T00:13:27;6.73;;;5.87;;
7917;SDS011;4004;42.624;23.386;2023-10-13T00:15:56;6.77;;;5.47;;
7917;SDS011;4004;42.624;23.386;2023-10-13T00:18:26;8.77;;;5.93;;
7917;SDS011;4004;42.624;23.386;2023-10-13T00:20:58;6.20;;;5.60;;
7917;SDS011;4004;42.624;23.386;2023-10-13T00:23:25;7.30;;;5.77;;
7917;SDS011;4004;42.624;23.386;2023-10-13T00:25:53;7.43;;;5.33;;
7917;SDS011;4004;42.624;23.386;2023-10-13T00:28:24;6.30;;;5.70;;
7917;SDS011;4004;42.624;23.386;2023-10-13T00:30:54;7.90;;;5.93;;
7917;SDS011;4004;42.624;23.386;2023-10-13T00:33:26;7.70;;;5.60;;
7917;SDS011;4004;42.624;23.386;2023-10-13T00:35:53;6.63;;;5.93;;
7917;SDS011;4004;42.624;23.386;2023-10-13T00:38:24;9.50;;;5.90;;
7917;SDS011;4004;42.624;23.386;2023-10-13T00:40:52;13.97;;;6.30;;
7917;SDS011;4004;42.624;23.386;2023-10-13T00:43:19;9.37;;;5.70;;
7917;SDS011;4004;42.624;23.386;2023-10-13T00:46:01;6.83;;;5.90;;
7917;SDS011;4004;42.624;23.386;2023-10-13T00:48:34;7.93;;;6.00;;
7917;SDS011;4004;42.624;23.386;2023-10-13T00:51:08;8.17;;;6.33;;
7917;SDS011;4004;42.624;23.386;2023-10-13T00:53:43;7.57;;;6.00;;
7917;SDS011;4004;42.624;23.386;2023-10-13T00:56:12;8.93;;;6.17;;
7917;SDS011;4004;42.624;23.386;2023-10-13T00:58:44;8.03;;;5.97;;
7917;SDS011;4004;42.624;23.386;2023-10-13T01:01:13;6.20;;;5.57;;
7917;SDS011;4004;42.624;23.386;2023-10-13T01:03:47;6.53;;;5.93;;
7917;SDS011;4004;42.624;23.386;2023-10-13T01:06:16;7.83;;;5.60;;
7917;SDS011;4004;42.624;23.386;2023-10-13T01:08:44;8.50;;;5.53;;
7917;SDS011;4004;42.624;23.386;2023-10-13T01:11:16;9.50;;;6.53;;
7917;SDS011;4004;42.624;23.386;2023-10-13T01:13:43;8.13;;;5.53;;
7917;SDS011;4004;42.624;23.386;2023-10-13T01:16:13;7.33;;;5.77;;
7917;SDS011;4004;42.624;23.386;2023-10-13T01:18:39;7.50;;;6.47;;
7917;SDS011;4004;42.624;23.386;2023-10-13T01:21:13;8.17;;;5.57;;
7917;SDS011;4004;42.624;23.386;2023-10-13T01:23:43;8.67;;;6.47;;
7917;SDS011;4004;42.624;23.386;2023-10-13T01:26:11;7.00;;;6.10;;
7917;SDS011;4004;42.624;23.386;2023-10-13T01:28:38;7.73;;;6.07;;
7917;SDS011;4004;42.624;23.386;2023-10-13T01:31:12;8.73;;;6.13;;
7917;SDS011;4004;42.624;23.386;2023-10-13T01:33:41;6.90;;;6.03;;
7917;SDS011;4004;42.624;23.386;2023-10-13T01:36:08;10.90;;;6.50;;
7917;SDS011;4004;42.624;23.386;2023-10-13T01:38:37;9.37;;;6.40;;
7917;SDS011;4004;42.624;23.386;2023-10-13T01:41:09;7.13;;;5.80;;
7917;SDS011;4004;42.624;23.386;2023-10-13T01:43:35;10.27;;;6.30;;
7917;SDS011;4004;42.624;23.386;2023-10-13T01:46:01;6.77;;;6.00;;
7917;SDS011;4004;42.624;23.386;2023-10-13T01:48:29;6.57;;;5.87;;
7917;SDS011;4004;42.624;23.386;2023-10-13T01:50:58;8.97;;;6.27;;
7917;SDS011;4004;42.624;23.386;2023-10-13T01:53:25;7.40;;;5.97;;
7917;SDS011;4004;42.624;23.386;2023-10-13T01:55:54;7.53;;;5.67;;
7917;SDS011;4004;42.624;23.386;2023-10-13T01:58:23;6.53;;;5.83;;
7917;SDS011;4004;42.624;23.386;2023-10-13T02:00:54;7.63;;;5.73;;
7917;SDS011;4004;42.624;23.386;2023-10-13T02:03:21;11.37;;;6.27;;
7917;SDS011;4004;42.624;23.386;2023-10-13T02:05:49;8.93;;;5.63;;
7917;SDS011;4004;42.624;23.386;2023-10-13T02:08:18;7.90;;;6.00;;
7917;SDS011;4004;42.624;23.386;2023-10-13T02:10:48;6.73;;;5.23;;
7917;SDS011;4004;42.624;23.386;2023-10-13T02:13:15;12.50;;;6.00;;
7917;SDS011;4004;42.624;23.386;2023-10-13T02:15:44;9.07;;;6.10;;
7917;SDS011;4004;42.624;23.386;2023-10-13T02:18:13;10.20;;;5.50;;
7917;SDS011;4004;42.624;23.386;2023-10-13T02:20:46;7.13;;;5.87;;
7917;SDS011;4004;42.624;23.386;2023-10-13T02:23:19;6.57;;;5.97;;
7917;SDS011;4004;42.624;23.386;2023-10-13T02:25:46;6.60;;;5.90;;
7917;SDS011;4004;42.624;23.386;2023-10-13T02:28:13;9.03;;;6.03;;
7917;SDS011;4004;42.624;23.386;2023-10-13T02:30:40;9.03;;;6.20;;
7917;SDS011;4004;42.624;23.386;2023-10-13T02:33:12;6.83;;;5.83;;
7917;SDS011;4004;42.624;23.386;2023-10-13T02:35:38;7.33;;;6.03;;
7917;SDS011;4004;42.624;23.386;2023-10-13T02:38:15;7.23;;;6.17;;
7917;SDS011;4004;42.624;23.386;2023-10-13T02:40:42;7.67;;;5.47;;
7917;SDS011;4004;42.624;23.386;2023-10-13T02:43:08;8.40;;;5.50;;
7917;SDS011;4004;42.624;23.386;2023-10-13T02:45:35;8.90;;;5.93;;
7917;SDS011;4004;42.624;23.386;2023-10-13T02:48:03;9.40;;;6.97;;
7917;SDS011;4004;42.624;23.386;2023-10-13T02:50:40;8.13;;;6.33;;
7917;SDS011;4004;42.624;23.386;2023-10-13T02:53:09;8.40;;;6.00;;
7917;SDS011;4004;42.624;23.386;2023-10-13T02:55:48;10.07;;;5.67;;
7917;SDS011;4004;42.624;23.386;2023-10-13T02:58:16;7.23;;;6.33;;
7917;SDS011;4004;42.624;23.386;2023-10-13T03:00:42;9.50;;;5.93;;
7917;SDS011;4004;42.624;23.386;2023-10-13T03:03:10;11.07;;;5.53;;
7917;SDS011;4004;42.624;23.386;2023-10-13T03:05:41;6.83;;;5.80;;
7917;SDS011;4004;42.624;23.386;2023-10-13T03:08:08;8.93;;;6.10;;
7917;SDS011;4004;42.624;23.386;2023-10-13T03:10:36;7.03;;;6.33;;
7917;SDS011;4004;42.624;23.386;2023-10-13T03:13:11;6.73;;;6.07;;
7917;SDS011;4004;42.624;23.386;2023-10-13T03:15:36;8.23;;;6.60;;
7917;SDS011;4004;42.624;23.386;2023-10-13T03:18:03;8.60;;;6.73;;
7917;SDS011;4004;42.624;23.386;2023-10-13T03:20:29;6.43;;;5.50;;
7917;SDS011;4004;42.624;23.386;2023-10-13T03:23:02;10.60;;;6.20;;
7917;SDS011;4004;42.624;23.386;2023-10-13T03:25:34;8.67;;;6.00;;
7917;SDS011;4004;42.624;23.386;2023-10-13T03:28:07;7.10;;;6.40;;
7917;SDS011;4004;42.624;23.386;2023-10-13T03:30:37;7.20;;;6.10;;
7917;SDS011;4004;42.624;23.386;2023-10-13T03:33:07;6.90;;;5.87;;
7917;SDS011;4004;42.624;23.386;2023-10-13T03:35:37;14.07;;;6.23;;
7917;SDS011;4004;42.624;23.386;2023-10-13T03:38:08;11.30;;;6.63;;
7917;SDS011;4004;42.624;23.386;2023-10-13T03:40:43;8.43;;;6.57;;
7917;SDS011;4004;42.624;23.386;2023-10-13T03:43:21;11.53;;;7.07;;
7917;SDS011;4004;42.624;23.386;2023-10-13T03:45:49;8.37;;;5.63;;
7917;SDS011;4004;42.624;23.386;2023-10-13T03:48:26;7.93;;;6.17;;
7917;SDS011;4004;42.624;23.386;2023-10-13T03:50:57;9.00;;;5.60;;
7917;SDS011;4004;42.624;23.386;2023-10-13T03:53:29;10.87;;;6.53;;
7917;SDS011;4004;42.624;23.386;2023-10-13T03:55:59;8.17;;;5.47;;
7917;SDS011;4004;42.624;23.386;2023-10-13T03:58:37;8.60;;;6.67;;
7917;SDS011;4004;42.624;23.386;2023-10-13T04:01:07;12.40;;;6.57;;
7917;SDS011;4004;42.624;23.386;2023-10-13T04:03:37;10.40;;;6.53;;
7917;SDS011;4004;42.624;23.386;2023-10-13T04:06:04;7.37;;;6.00;;
7917;SDS011;4004;42.624;23.386;2023-10-13T04:08:34;9.63;;;6.13;;
7917;SDS011;4004;42.624;23.386;2023-10-13T04:11:34;8.30;;;6.70;;
7917;SDS011;4004;42.624;23.386;2023-10-13T04:14:39;7.47;;;6.23;;
7917;SDS011;4004;42.624;23.386;2023-10-13T04:17:33;11.93;;;5.80;;
7917;SDS011;4004;42.624;23.386;2023-10-13T04:20:09;10.07;;;6.83;;
7917;SDS011;4004;42.624;23.386;2023-10-13T04:22:39;19.23;;;6.53;;
7917;SDS011;4004;42.624;23.386;2023-10-13T04:25:22;9.73;;;6.40;;
7917;SDS011;4004;42.624;23.386;2023-10-13T04:28:05;11.00;;;6.43;;
7917;SDS011;4004;42.624;23.386;2023-10-13T04:30:59;9.30;;;5.40;;
7917;SDS011;4004;42.624;23.386;2023-10-13T04:33:37;11.77;;;6.73;;
7917;SDS011;4004;42.624;23.386;2023-10-13T04:36:21;11.53;;;7.47;;
7917;SDS011;4004;42.624;23.386;2023-10-13T04:39:02;10.40;;;6.17;;
7917;SDS011;4004;42.624;23.386;2023-10-13T04:41:37;9.23;;;6.37;;
7917;SDS011;4004;42.624;23.386;2023-10-13T04:44:05;14.47;;;6.97;;
7917;SDS011;4004;42.624;23.386;2023-10-13T04:46:46;11.67;;;6.47;;
7917;SDS011;4004;42.624;23.386;2023-10-13T04:49:33;13.57;;;6.37;;
7917;SDS011;4004;42.624;23.386;2023-10-13T04:52:15;15.10;;;6.53;;
7917;SDS011;4004;42.624;23.386;2023-10-13T04:55:04;8.63;;;6.53;;
7917;SDS011;4004;42.624;23.386;2023-10-13T04:58:10;9.43;;;6.37;;
7917;SDS011;4004;42.624;23.386;2023-10-13T05:00:39;9.50;;;6.63;;
7917;SDS011;4004;42.624;23.386;2023-10-13T05:03:21;10.70;;;6.60;;
7917;SDS011;4004;42.624;23.386;2023-10-13T05:06:17;15.23;;;6.73;;
7917;SDS011;4004;42.624;23.386;2023-10-13T05:08:58;9.33;;;5.80;;
7917;SDS011;4004;42.624;23.386;2023-10-13T05:11:42;13.67;;;7.17;;
7917;SDS011;4004;42.624;23.386;2023-10-13T05:14:28;11.67;;;6.37;;
7917;SDS011;4004;42.624;23.386;2023-10-13T05:17:12;7.97;;;5.83;;
7917;SDS011;4004;42.624;23.386;2023-10-13T05:19:57;9.97;;;6.53;;
7917;SDS011;4004;42.624;23.386;2023-10-13T05:22:42;23.23;;;7.63;;
7917;SDS011;4004;42.624;23.386;2023-10-13T05:25:26;14.57;;;5.87;;
7917;SDS011;4004;42.624;23.386;2023-10-13T05:28:10;13.00;;;6.50;;
7917;SDS011;4004;42.624;23.386;2023-10-13T05:31:01;10.97;;;7.13;;
7917;SDS011;4004;42.624;23.386;2023-10-13T05:33:45;19.73;;;6.00;;
7917;SDS011;4004;42.624;23.386;2023-10-13T05:36:29;18.80;;;6.30;;
7917;SDS011;4004;42.624;23.386;2023-10-13T05:39:13;23.17;;;7.73;;
7917;SDS011;4004;42.624;23.386;2023-10-13T05:41:57;14.67;;;6.53;;
7917;SDS011;4004;42.624;23.386;2023-10-13T05:44:41;25.67;;;7.73;;
7917;SDS011;4004;42.624;23.386;2023-10-13T05:47:22;21.37;;;6.97;;
7917;SDS011;4004;42.624;23.386;2023-10-13T05:50:12;23.53;;;8.20;;
7917;SDS011;4004;42.624;23.386;2023-10-13T05:52:54;25.15;;;8.27;;
7917;SDS011;4004;42.624;23.386;2023-10-13T05:55:38;15.17;;;7.30;;
7917;SDS011;4004;42.624;23.386;2023-10-13T05:58:23;14.57;;;7.10;;
7917;SDS011;4004;42.624;23.386;2023-10-13T06:01:11;20.10;;;7.60;;
7917;SDS011;4004;42.624;23.386;2023-10-13T06:03:57;22.00;;;6.77;;
7917;SDS011;4004;42.624;23.386;2023-10-13T06:06:41;18.50;;;7.33;;
7917;SDS011;4004;42.624;23.386;2023-10-13T06:09:25;13.13;;;7.33;;
7917;SDS011;4004;42.624;23.386;2023-10-13T06:12:09;11.90;;;7.30;;
7917;SDS011;4004;42.624;23.386;2023-10-13T06:14:53;18.90;;;7.73;;
7917;SDS011;4004;42.624;23.386;2023-10-13T06:17:37;24.90;;;7.87;;
7917;SDS011;4004;42.624;23.386;2023-10-13T06:20:23;14.57;;;8.00;;
7917;SDS011;4004;42.624;23.386;2023-10-13T06:23:07;17.43;;;7.40;;
7917;SDS011;4004;42.624;23.386;2023-10-13T06:25:51;10.27;;;6.30;;
7917;SDS011;4004;42.624;23.386;2023-10-13T06:28:35;9.80;;;5.97;;
7917;SDS011;4004;42.624;23.386;2023-10-13T06:31:09;10.33;;;5.23;;
7917;SDS011;4004;42.624;23.386;2023-10-13T06:33:46;15.90;;;6.27;;
7917;SDS011;4004;42.624;23.386;2023-10-13T06:36:14;8.27;;;5.63;;
7917;SDS011;4004;42.624;23.386;2023-10-13T06:38:42;18.63;;;6.97;;
7917;SDS011;4004;42.624;23.386;2023-10-13T06:41:10;12.37;;;6.77;;
7917;SDS011;4004;42.624;23.386;2023-10-13T06:43:45;16.43;;;7.37;;
7917;SDS011;4004;42.624;23.386;2023-10-13T06:46:24;14.27;;;8.20;;
7917;SDS011;4004;42.624;23.386;2023-10-13T06:48:53;16.40;;;8.03;;
7917;SDS011;4004;42.624;23.386;2023-10-13T06:51:22;14.93;;;9.03;;
7917;SDS011;4004;42.624;23.386;2023-10-13T06:53:51;19.73;;;8.23;;
7917;SDS011;4004;42.624;23.386;2023-10-13T06:56:21;21.07;;;8.03;;
7917;SDS011;4004;42.624;23.386;2023-10-13T06:58:52;13.03;;;7.00;;
7917;SDS011;4004;42.624;23.386;2023-10-13T07:01:24;13.93;;;6.90;;
7917;SDS011;4004;42.624;23.386;2023-10-13T07:03:52;15.53;;;7.00;;
7917;SDS011;4004;42.624;23.386;2023-10-13T07:06:19;23.60;;;7.80;;
7917;SDS011;4004;42.624;23.386;2023-10-13T07:08:47;9.33;;;6.10;;
7917;SDS011;4004;42.624;23.386;2023-10-13T07:11:18;14.93;;;5.67;;
7917;SDS011;4004;42.624;23.386;2023-10-13T07:13:58;14.67;;;5.83;;
7917;SDS011;4004;42.624;23.386;2023-10-13T07:16:34;10.63;;;5.70;;
7917;SDS011;4004;42.624;23.386;2023-10-13T07:19:02;9.77;;;5.67;;
7917;SDS011;4004;42.624;23.386;2023-10-13T07:21:31;11.67;;;5.13;;
7917;SDS011;4004;42.624;23.386;2023-10-13T07:24:00;9.83;;;5.47;;
7917;SDS011;4004;42.624;23.386;2023-10-13T07:26:33;11.20;;;6.30;;
7917;SDS011;4004;42.624;23.386;2023-10-13T07:29:07;9.30;;;5.70;;
7917;SDS011;4004;42.624;23.386;2023-10-13T07:31:34;12.37;;;5.60;;
7917;SDS011;4004;42.624;23.386;2023-10-13T07:34:03;13.93;;;5.23;;
7917;SDS011;4004;42.624;23.386;2023-10-13T07:36:38;6.90;;;5.03;;
7917;SDS011;4004;42.624;23.386;2023-10-13T07:39:07;9.57;;;5.30;;
7917;SDS011;4004;42.624;23.386;2023-10-13T07:41:47;14.37;;;5.27;;
7917;SDS011;4004;42.624;23.386;2023-10-13T07:44:17;16.27;;;5.13;;
7917;SDS011;4004;42.624;23.386;2023-10-13T07:46:50;14.00;;;6.27;;
7917;SDS011;4004;42.624;23.386;2023-10-13T07:49:26;18.30;;;6.13;;
7917;SDS011;4004;42.624;23.386;2023-10-13T07:51:58;10.37;;;5.30;;
7917;SDS011;4004;42.624;23.386;2023-10-13T07:54:33;16.53;;;6.10;;
7917;SDS011;4004;42.624;23.386;2023-10-13T07:57:05;11.37;;;5.33;;
7917;SDS011;4004;42.624;23.386;2023-10-13T07:59:33;14.27;;;5.90;;
7917;SDS011;4004;42.624;23.386;2023-10-13T08:02:01;17.53;;;7.23;;
7917;SDS011;4004;42.624;23.386;2023-10-13T08:04:58;15.10;;;5.87;;
7917;SDS011;4004;42.624;23.386;2023-10-13T08:07:26;13.33;;;5.47;;
7917;SDS011;4004;42.624;23.386;2023-10-13T08:09:55;12.60;;;7.27;;
7917;SDS011;4004;42.624;23.386;2023-10-13T08:12:24;25.53;;;6.20;;
7917;SDS011;4004;42.624;23.386;2023-10-13T08:14:51;12.93;;;6.43;;
7917;SDS011;4004;42.624;23.386;2023-10-13T08:17:37;15.80;;;6.87;;
7917;SDS011;4004;42.624;23.386;2023-10-13T08:20:09;13.40;;;6.50;;
7917;SDS011;4004;42.624;23.386;2023-10-13T08:22:37;12.57;;;7.50;;
7917;SDS011;4004;42.624;23.386;2023-10-13T08:25:13;14.50;;;7.27;;
7917;SDS011;4004;42.624;23.386;2023-10-13T08:27:50;13.30;;;6.30;;
7917;SDS011;4004;42.624;23.386;2023-10-13T08:30:50;11.37;;;6.30;;
7917;SDS011;4004;42.624;23.386;2023-10-13T08:33:21;17.90;;;7.37;;
7917;SDS011;4004;42.624;23.386;2023-10-13T08:35:52;14.10;;;6.77;;
7917;SDS011;4004;42.624;23.386;2023-10-13T08:38:51;25.07;;;7.90;;
7917;SDS011;4004;42.624;23.386;2023-10-13T08:41:21;14.53;;;7.43;;
7917;SDS011;4004;42.624;23.386;2023-10-13T08:44:03;25.37;;;9.13;;
7917;SDS011;4004;42.624;23.386;2023-10-13T08:46:34;21.03;;;8.40;;
7917;SDS011;4004;42.624;23.386;2023-10-13T08:49:31;18.07;;;8.33;;
7917;SDS011;4004;42.624;23.386;2023-10-13T08:52:05;21.40;;;9.37;;
7917;SDS011;4004;42.624;23.386;2023-10-13T08:55:00;20.33;;;8.33;;
7917;SDS011;4004;42.624;23.386;2023-10-13T08:58:01;21.37;;;7.60;;
7917;SDS011;4004;42.624;23.386;2023-10-13T09:00:38;16.00;;;8.63;;
7917;SDS011;4004;42.624;23.386;2023-10-13T09:03:37;15.13;;;8.53;;
7917;SDS011;4004;42.624;23.386;2023-10-13T09:06:08;17.50;;;9.13;;
7917;SDS011;4004;42.624;23.386;2023-10-13T09:08:40;15.13;;;7.73;;
7917;SDS011;4004;42.624;23.386;2023-10-13T09:11:20;25.47;;;8.57;;
7917;SDS011;4004;42.624;23.386;2023-10-13T09:13:53;22.17;;;10.23;;
7917;SDS011;4004;42.624;23.386;2023-10-13T09:16:18;24.63;;;9.57;;
7917;SDS011;4004;42.624;23.386;2023-10-13T09:19:08;15.47;;;8.33;;
7917;SDS011;4004;42.624;23.386;2023-10-13T09:21:37;22.87;;;9.70;;
7917;SDS011;4004;42.624;23.386;2023-10-13T09:24:12;30.70;;;10.17;;
7917;SDS011;4004;42.624;23.386;2023-10-13T09:26:46;28.63;;;10.13;;
7917;SDS011;4004;42.624;23.386;2023-10-13T09:29:17;22.00;;;9.77;;
7917;SDS011;4004;42.624;23.386;2023-10-13T09:31:44;19.73;;;9.20;;
7917;SDS011;4004;42.624;23.386;2023-10-13T09:34:20;22.03;;;10.83;;
7917;SDS011;4004;42.624;23.386;2023-10-13T09:36:48;17.27;;;9.87;;
7917;SDS011;4004;42.624;23.386;2023-10-13T09:39:21;22.80;;;9.70;;
7917;SDS011;4004;42.624;23.386;2023-10-13T09:42:00;17.57;;;9.03;;
7917;SDS011;4004;42.624;23.386;2023-10-13T09:44:30;17.20;;;9.37;;
7917;SDS011;4004;42.624;23.386;2023-10-13T09:46:57;20.80;;;9.40;;
7917;SDS011;4004;42.624;23.386;2023-10-13T09:49:35;18.13;;;9.97;;
7917;SDS011;4004;42.624;23.386;2023-10-13T09:52:10;17.57;;;9.37;;
7917;SDS011;4004;42.624;23.386;2023-10-13T09:54:44;19.80;;;9.10;;
7917;SDS011;4004;42.624;23.386;2023-10-13T09:57:24;20.50;;;9.60;;
7917;SDS011;4004;42.624;23.386;2023-10-13T10:00:02;18.60;;;8.93;;
7917;SDS011;4004;42.624;23.386;2023-10-13T10:02:54;14.27;;;9.53;;
7917;SDS011;4004;42.624;23.386;2023-10-13T10:05:29;17.83;;;9.07;;
7917;SDS011;4004;42.624;23.386;2023-10-13T10:07:59;19.83;;;9.27;;
7917;SDS011;4004;42.624;23.386;2023-10-13T10:10:27;19.73;;;8.63;;
7917;SDS011;4004;42.624;23.386;2023-10-13T10:13:13;22.90;;;9.53;;
7917;SDS011;4004;42.624;23.386;2023-10-13T10:15:49;19.50;;;8.20;;
7917;SDS011;4004;42.624;23.386;2023-10-13T10:18:22;18.30;;;8.50;;
7917;SDS011;4004;42.624;23.386;2023-10-13T10:20:51;15.23;;;7.17;;
7917;SDS011;4004;42.624;23.386;2023-10-13T10:23:23;19.63;;;8.20;;
7917;SDS011;4004;42.624;23.386;2023-10-13T10:25:52;14.73;;;7.40;;
7917;SDS011;4004;42.624;23.386;2023-10-13T10:28:36;15.57;;;8.10;;
7917;SDS011;4004;42.624;23.386;2023-10-13T10:31:08;21.03;;;7.73;;
7917;SDS011;4004;42.624;23.386;2023-10-13T10:33:37;22.10;;;8.03;;
7917;SDS011;4004;42.624;23.386;2023-10-13T10:36:05;16.80;;;7.40;;
7917;SDS011;4004;42.624;23.386;2023-10-13T10:38:50;9.53;;;5.80;;
7917;SDS011;4004;42.624;23.386;2023-10-13T10:41:24;13.47;;;5.83;;
7917;SDS011;4004;42.624;23.386;2023-10-13T10:43:54;17.70;;;5.83;;
7917;SDS011;4004;42.624;23.386;2023-10-13T10:46:26;11.70;;;5.27;;
7917;SDS011;4004;42.624;23.386;2023-10-13T10:49:03;11.20;;;5.33;;
7917;SDS011;4004;42.624;23.386;2023-10-13T10:51:33;18.23;;;4.83;;
7917;SDS011;4004;42.624;23.386;2023-10-13T10:54:17;11.50;;;4.43;;
7917;SDS011;4004;42.624;23.386;2023-10-13T10:56:45;12.20;;;5.13;;
7917;SDS011;4004;42.624;23.386;2023-10-13T10:59:18;10.53;;;5.10;;
7917;SDS011;4004;42.624;23.386;2023-10-13T11:01:48;10.10;;;4.73;;
7917;SDS011;4004;42.624;23.386;2023-10-13T11:04:16;12.50;;;4.73;;
7917;SDS011;4004;42.624;23.386;2023-10-13T11:06:50;9.67;;;4.13;;
7917;SDS011;4004;42.624;23.386;2023-10-13T11:09:23;13.77;;;4.53;;
7917;SDS011;4004;42.624;23.386;2023-10-13T11:11:57;7.63;;;4.27;;
7917;SDS011;4004;42.624;23.386;2023-10-13T11:14:39;13.57;;;4.37;;
7917;SDS011;4004;42.624;23.386;2023-10-13T11:17:08;9.63;;;4.00;;
7917;SDS011;4004;42.624;23.386;2023-10-13T11:19:44;8.07;;;3.50;;
7917;SDS011;4004;42.624;23.386;2023-10-13T11:22:10;8.80;;;3.83;;
7917;SDS011;4004;42.624;23.386;2023-10-13T11:24:54;5.80;;;3.77;;
7917;SDS011;4004;42.624;23.386;2023-10-13T11:27:27;6.40;;;3.63;;
7917;SDS011;4004;42.624;23.386;2023-10-13T11:30:09;11.27;;;3.93;;
7917;SDS011;4004;42.624;23.386;2023-10-13T11:32:41;8.57;;;3.73;;
7917;SDS011;4004;42.624;23.386;2023-10-13T11:35:08;8.50;;;3.60;;
7917;SDS011;4004;42.624;23.386;2023-10-13T11:37:45;6.60;;;3.40;;
7917;SDS011;4004;42.624;23.386;2023-10-13T11:40:21;7.30;;;3.27;;
7917;SDS011;4004;42.624;23.386;2023-10-13T11:43:08;9.27;;;3.50;;
7917;SDS011;4004;42.624;23.386;2023-10-13T11:45:39;8.00;;;3.83;;
7917;SDS011;4004;42.624;23.386;2023-10-13T11:48:20;7.37;;;3.37;;
7917;SDS011;4004;42.624;23.386;2023-10-13T11:50:59;4.50;;;2.80;;
7917;SDS011;4004;42.624;23.386;2023-10-13T11:53:30;11.20;;;3.40;;
7917;SDS011;4004;42.624;23.386;2023-10-13T11:55:57;5.13;;;2.83;;
7917;SDS011;4004;42.624;23.386;2023-10-13T11:58:24;9.00;;;3.27;;
7917;SDS011;4004;42.624;23.386;2023-10-13T12:00:53;7.00;;;3.07;;
7917;SDS011;4004;42.624;23.386;2023-10-13T12:03:35;8.43;;;3.17;;
7917;SDS011;4004;42.624;23.386;2023-10-13T12:06:34;4.43;;;2.93;;
7917;SDS011;4004;42.624;23.386;2023-10-13T12:09:12;9.73;;;3.70;;
7917;SDS011;4004;42.624;23.386;2023-10-13T12:12:00;6.90;;;2.67;;
7917;SDS011;4004;42.624;23.386;2023-10-13T12:14:29;8.60;;;3.47;;
7917;SDS011;4004;42.624;23.386;2023-10-13T12:17:02;13.53;;;3.17;;
7917;SDS011;4004;42.624;23.386;2023-10-13T12:19:31;7.00;;;3.20;;
7917;SDS011;4004;42.624;23.386;2023-10-13T12:22:00;5.37;;;2.67;;
7917;SDS011;4004;42.624;23.386;2023-10-13T12:24:30;7.87;;;2.60;;
7917;SDS011;4004;42.624;23.386;2023-10-13T12:27:06;6.03;;;2.93;;
7917;SDS011;4004;42.624;23.386;2023-10-13T12:29:44;25.90;;;3.77;;
7917;SDS011;4004;42.624;23.386;2023-10-13T12:32:11;10.10;;;3.40;;
7917;SDS011;4004;42.624;23.386;2023-10-13T12:34:41;9.03;;;3.27;;
7917;SDS011;4004;42.624;23.386;2023-10-13T12:37:42;5.40;;;2.83;;
7917;SDS011;4004;42.624;23.386;2023-10-13T12:40:29;5.10;;;2.30;;
7917;SDS011;4004;42.624;23.386;2023-10-13T12:43:14;8.47;;;2.90;;
7917;SDS011;4004;42.624;23.386;2023-10-13T12:45:58;5.43;;;2.70;;
7917;SDS011;4004;42.624;23.386;2023-10-13T12:48:41;7.60;;;3.07;;
7917;SDS011;4004;42.624;23.386;2023-10-13T12:51:42;5.60;;;3.03;;
7917;SDS011;4004;42.624;23.386;2023-10-13T12:54:17;7.57;;;3.10;;
7917;SDS011;4004;42.624;23.386;2023-10-13T12:56:48;7.03;;;3.00;;
7917;SDS011;4004;42.624;23.386;2023-10-13T12:59:21;4.60;;;2.57;;
7917;SDS011;4004;42.624;23.386;2023-10-13T13:01:51;4.63;;;2.47;;
7917;SDS011;4004;42.624;23.386;2023-10-13T13:04:18;6.20;;;2.90;;
7917;SDS011;4004;42.624;23.386;2023-10-13T13:06:47;9.07;;;2.80;;
7917;SDS011;4004;42.624;23.386;2023-10-13T13:09:15;5.63;;;3.27;;
7917;SDS011;4004;42.624;23.386;2023-10-13T13:11:50;7.37;;;2.87;;
7917;SDS011;4004;42.624;23.386;2023-10-13T13:14:22;7.53;;;2.97;;
7917;SDS011;4004;42.624;23.386;2023-10-13T13:16:54;4.87;;;2.80;;
7917;SDS011;4004;42.624;23.386;2023-10-13T13:19:29;8.03;;;2.93;;
7917;SDS011;4004;42.624;23.386;2023-10-13T13:22:00;6.63;;;3.37;;
7917;SDS011;4004;42.624;23.386;2023-10-13T13:24:28;5.83;;;2.77;;
7917;SDS011;4004;42.624;23.386;2023-10-13T13:26:56;8.87;;;2.97;;
7917;SDS011;4004;42.624;23.386;2023-10-13T13:29:27;5.87;;;3.10;;
7917;SDS011;4004;42.624;23.386;2023-10-13T13:31:55;8.80;;;3.00;;
7917;SDS011;4004;42.624;23.386;2023-10-13T13:34:22;7.30;;;3.27;;
7917;SDS011;4004;42.624;23.386;2023-10-13T13:36:49;6.50;;;3.00;;
7917;SDS011;4004;42.624;23.386;2023-10-13T13:39:19;4.90;;;2.83;;
7917;SDS011;4004;42.624;23.386;2023-10-13T13:41:54;5.80;;;2.87;;
7917;SDS011;4004;42.624;23.386;2023-10-13T13:44:22;3.83;;;2.70;;
7917;SDS011;4004;42.624;23.386;2023-10-13T13:46:54;9.03;;;2.80;;
7917;SDS011;4004;42.624;23.386;2023-10-13T13:49:23;7.53;;;3.40;;
7917;SDS011;4004;42.624;23.386;2023-10-13T13:51:55;7.07;;;3.20;;
7917;SDS011;4004;42.624;23.386;2023-10-13T13:54:23;5.30;;;3.10;;
7917;SDS011;4004;42.624;23.386;2023-10-13T13:56:53;5.13;;;3.07;;
7917;SDS011;4004;42.624;23.386;2023-10-13T13:59:20;6.23;;;2.80;;
7917;SDS011;4004;42.624;23.386;2023-10-13T14:01:46;6.80;;;3.13;;
7917;SDS011;4004;42.624;23.386;2023-10-13T14:04:13;6.27;;;2.70;;
7917;SDS011;4004;42.624;23.386;2023-10-13T14:06:42;11.83;;;3.53;;
7917;SDS011;4004;42.624;23.386;2023-10-13T14:09:10;4.87;;;3.17;;
7917;SDS011;4004;42.624;23.386;2023-10-13T14:11:42;6.77;;;3.30;;
7917;SDS011;4004;42.624;23.386;2023-10-13T14:14:35;8.53;;;4.07;;
7917;SDS011;4004;42.624;23.386;2023-10-13T14:17:02;8.60;;;3.50;;
7917;SDS011;4004;42.624;23.386;2023-10-13T14:19:32;10.70;;;3.20;;
7917;SDS011;4004;42.624;23.386;2023-10-13T14:22:00;8.53;;;3.30;;
7917;SDS011;4004;42.624;23.386;2023-10-13T14:24:31;17.50;;;3.30;;
7917;SDS011;4004;42.624;23.386;2023-10-13T14:27:01;12.23;;;3.87;;
7917;SDS011;4004;42.624;23.386;2023-10-13T14:29:34;8.03;;;3.17;;
7917;SDS011;4004;42.624;23.386;2023-10-13T14:32:05;10.67;;;3.37;;
7917;SDS011;4004;42.624;23.386;2023-10-13T14:34:37;9.20;;;4.03;;
7917;SDS011;4004;42.624;23.386;2023-10-13T14:37:05;6.70;;;3.67;;
7917;SDS011;4004;42.624;23.386;2023-10-13T14:39:31;11.80;;;4.03;;
7917;SDS011;4004;42.624;23.386;2023-10-13T14:42:01;8.23;;;3.13;;
7917;SDS011;4004;42.624;23.386;2023-10-13T14:44:31;12.17;;;3.63;;
7917;SDS011;4004;42.624;23.386;2023-10-13T14:46:58;11.47;;;3.73;;
7917;SDS011;4004;42.624;23.386;2023-10-13T14:49:25;6.93;;;2.93;;
7917;SDS011;4004;42.624;23.386;2023-10-13T14:51:51;9.73;;;3.47;;
7917;SDS011;4004;42.624;23.386;2023-10-13T14:54:20;6.70;;;3.33;;
7917;SDS011;4004;42.624;23.386;2023-10-13T14:56:58;5.57;;;3.70;;
7917;SDS011;4004;42.624;23.386;2023-10-13T14:59:27;11.60;;;3.70;;
7917;SDS011;4004;42.624;23.386;2023-10-13T15:01:58;6.43;;;3.60;;
7917;SDS011;4004;42.624;23.386;2023-10-13T15:04:27;9.97;;;3.60;;
7917;SDS011;4004;42.624;23.386;2023-10-13T15:06:57;7.25;;;3.75;;
7917;SDS011;4004;42.624;23.386;2023-10-13T15:09:27;7.67;;;3.47;;
7917;SDS011;4004;42.624;23.386;2023-10-13T15:11:54;7.70;;;3.73;;
7917;SDS011;4004;42.624;23.386;2023-10-13T15:14:21;11.47;;;3.80;;
7917;SDS011;4004;42.624;23.386;2023-10-13T15:16:50;6.87;;;3.70;;
7917;SDS011;4004;42.624;23.386;2023-10-13T15:19:18;11.93;;;3.80;;
7917;SDS011;4004;42.624;23.386;2023-10-13T15:21:45;17.07;;;4.40;;
7917;SDS011;4004;42.624;23.386;2023-10-13T15:24:15;16.13;;;5.07;;
7917;SDS011;4004;42.624;23.386;2023-10-13T15:26:43;20.20;;;5.20;;
7917;SDS011;4004;42.624;23.386;2023-10-13T15:29:13;12.23;;;5.43;;
7917;SDS011;4004;42.624;23.386;2023-10-13T15:31:42;14.50;;;5.13;;
7917;SDS011;4004;42.624;23.386;2023-10-13T15:34:20;16.10;;;5.20;;
7917;SDS011;4004;42.624;23.386;2023-10-13T15:36:48;8.43;;;4.10;;